createdAt,value
2019-05-03T00:02:42.778Z,18.00
2019-05-03T00:05:27.333Z,18.10
2019-05-03T00:08:18.980Z,18.10
2019-05-03T00:10:47.204Z,18.20
2019-05-03T00:13:23.191Z,18.20
2019-05-03T00:19:06.677Z,18.20
2019-05-03T00:28:44.873Z,18.50
2019-05-03T00:32:09.815Z,18.60
2019-05-03T00:35:05.486Z,18.70
2019-05-03T00:47:22.019Z,19.10
2019-05-03T00:49:57.143Z,19.40
2019-05-03T00:52:44.125Z,19.50
2019-05-03T00:55:22.037Z,19.70
2019-05-03T00:58:03.275Z,19.80
2019-05-03T01:00:48.693Z,19.90
2019-05-03T01:03:27.035Z,19.80
2019-05-03T01:09:13.523Z,20.00
2019-05-03T01:17:54.806Z,19.90
2019-05-03T01:20:55.460Z,19.90
2019-05-03T01:23:25.309Z,20.20
2019-05-03T01:26:06.454Z,20.30
2019-05-03T01:28:43.116Z,20.30
2019-05-03T01:31:31.947Z,20.40
2019-05-03T01:34:06.170Z,20.30
2019-05-03T01:39:53.637Z,20.30
2019-05-03T01:42:24.775Z,20.40
2019-05-03T01:45:15.166Z,20.40
2019-05-03T01:51:19.108Z,20.50
2019-05-03T01:54:09.680Z,20.50
2019-05-03T01:56:56.089Z,20.40
2019-05-03T01:59:32.293Z,20.50
2019-05-03T02:02:24.102Z,20.40
2019-05-03T02:09:44.936Z,20.30
2019-05-03T02:11:22.115Z,20.20
2019-05-03T02:16:56.389Z,20.10
2019-05-03T02:22:28.086Z,20.20
2019-05-03T02:28:03.875Z,20.30
2019-05-03T02:31:23.642Z,20.30
2019-05-03T02:34:20.107Z,20.30
2019-05-03T02:37:26.463Z,20.30
2019-05-03T02:39:59.920Z,20.40
2019-05-03T02:42:42.058Z,20.40
2019-05-03T02:45:40.817Z,20.40
2019-05-03T02:48:40.054Z,20.50
2019-05-03T02:51:46.554Z,20.50
2019-05-03T02:54:26.501Z,20.50
2019-05-03T03:00:55.861Z,20.40
2019-05-03T03:03:45.575Z,20.40
2019-05-03T03:12:06.284Z,20.30
2019-05-03T03:14:51.074Z,20.40
2019-05-03T03:17:39.978Z,20.40
2019-05-03T03:20:25.277Z,20.50
2019-05-03T03:23:07.534Z,20.60
2019-05-03T03:25:59.050Z,20.70
2019-05-03T03:28:37.030Z,20.70
2019-05-03T03:41:06.051Z,21.50
2019-05-03T03:44:09.075Z,21.50
2019-05-03T03:46:40.519Z,21.50
2019-05-03T03:50:15.035Z,21.70
2019-05-03T03:52:17.522Z,21.90
2019-05-03T03:54:59.729Z,21.80
2019-05-03T04:00:51.699Z,21.90
2019-05-03T04:03:31.602Z,21.90
2019-05-03T04:06:26.950Z,21.90
2019-05-03T04:09:17.018Z,21.90
2019-05-03T04:11:59.982Z,22.00
2019-05-03T04:14:57.414Z,22.10
2019-05-03T04:18:01.924Z,21.90
2019-05-03T04:20:39.657Z,22.00
2019-05-03T04:23:42.323Z,22.00
2019-05-03T04:26:32.203Z,22.20
2019-05-03T04:38:11.160Z,22.50
2019-05-03T04:40:52.271Z,22.60
2019-05-03T04:44:02.442Z,22.50
2019-05-03T04:47:06.743Z,22.30
2019-05-03T04:49:48.747Z,22.50
2019-05-03T04:52:26.131Z,22.70
2019-05-03T04:55:06.568Z,22.70
2019-05-03T04:58:39.054Z,23.10
2019-05-03T05:00:46.289Z,23.20
2019-05-03T05:03:26.570Z,23.50
2019-05-03T05:09:46.240Z,23.50
2019-05-03T05:12:25.203Z,23.60
2019-05-03T05:19:07.539Z,23.50
2019-05-03T05:28:15.600Z,23.40
2019-05-03T05:29:02.287Z,23.40
2019-05-03T05:31:54.845Z,23.40
2019-05-03T05:34:34.871Z,23.40
2019-05-03T05:46:42.571Z,24.00
2019-05-03T05:52:26.702Z,24.20
2019-05-03T05:55:25.150Z,24.10
2019-05-03T05:58:08.123Z,23.70
2019-05-03T05:59:05.472Z,24.10
2019-05-03T06:01:02.528Z,23.70
2019-05-03T06:07:17.926Z,23.40
2019-05-03T06:09:58.663Z,23.20
2019-05-03T06:13:07.011Z,23.40
2019-05-03T06:16:05.153Z,23.60
2019-05-03T06:18:58.422Z,23.60
2019-05-03T06:22:05.058Z,23.60
2019-05-03T06:25:18.344Z,23.50
2019-05-03T06:33:40.014Z,23.20
2019-05-03T06:36:18.148Z,23.20
2019-05-03T06:50:52.590Z,23.60
2019-05-03T06:53:55.163Z,23.80
2019-05-03T06:56:35.005Z,24.20
2019-05-03T07:02:46.961Z,24.60
2019-05-03T07:09:05.448Z,24.00
2019-05-03T07:14:45.069Z,23.80
2019-05-03T07:17:46.040Z,24.10
2019-05-03T07:23:18.750Z,24.00
2019-05-03T07:27:20.492Z,23.80
2019-05-03T07:32:59.056Z,23.70
2019-05-03T07:38:57.988Z,23.70
2019-05-03T07:45:55.189Z,23.50
2019-05-03T07:47:40.239Z,23.30
2019-05-03T07:50:18.994Z,23.30
2019-05-03T07:53:01.691Z,23.30
2019-05-03T07:59:02.846Z,23.40
2019-05-03T08:01:45.578Z,23.50
2019-05-03T08:16:37.407Z,23.40
2019-05-03T08:19:31.910Z,23.50
2019-05-03T08:22:14.888Z,23.60
2019-05-03T08:25:24.640Z,23.50
2019-05-03T08:28:00.872Z,23.40
2019-05-03T08:30:55.500Z,23.40
2019-05-03T08:33:48.089Z,23.40
2019-05-03T08:36:31.350Z,23.30
2019-05-03T08:46:56.271Z,23.10
2019-05-03T08:48:28.130Z,23.00
2019-05-03T08:51:07.331Z,23.00
2019-05-03T08:53:48.307Z,23.10
2019-05-03T08:56:26.972Z,23.10
2019-05-03T08:59:28.643Z,23.00
2019-05-03T09:01:52.254Z,23.00
2019-05-03T09:04:35.998Z,22.90
2019-05-03T09:07:09.810Z,23.00
2019-05-03T09:10:24.806Z,22.90
2019-05-03T09:13:19.480Z,22.80
2019-05-03T09:16:15.743Z,22.80
2019-05-03T09:18:51.189Z,22.70
2019-05-03T09:28:34.824Z,22.60
2019-05-03T09:30:25.105Z,22.70
2019-05-03T09:33:11.686Z,22.70
2019-05-03T09:36:01.899Z,22.60
2019-05-03T09:41:49.888Z,22.70
2019-05-03T09:41:52.124Z,22.70
2019-05-03T09:47:44.627Z,22.70
2019-05-03T09:57:15.878Z,22.60
2019-05-03T10:03:28.173Z,22.60
2019-05-03T10:12:32.882Z,22.30
2019-05-03T10:20:45.639Z,22.20
2019-05-03T10:21:37.445Z,22.20
2019-05-03T10:24:46.744Z,22.10
2019-05-03T10:34:05.773Z,21.90
2019-05-03T10:39:47.404Z,21.80
2019-05-03T10:42:28.210Z,21.70
2019-05-03T10:48:35.551Z,21.60
2019-05-03T10:55:16.840Z,21.50
2019-05-03T10:57:12.914Z,21.50
2019-05-03T11:03:34.968Z,21.40
2019-05-03T11:12:45.577Z,21.10
2019-05-03T11:15:34.948Z,21.00
2019-05-03T11:24:49.871Z,20.80
2019-05-03T11:27:50.625Z,20.70
2019-05-03T11:30:35.721Z,20.70
2019-05-03T11:34:05.144Z,20.60
2019-05-03T11:40:05.082Z,20.50
2019-05-03T11:42:49.406Z,20.50
2019-05-03T11:48:45.476Z,20.40
2019-05-03T11:51:46.598Z,20.40
2019-05-03T11:57:50.651Z,20.40
2019-05-03T12:00:30.936Z,20.40
2019-05-03T12:03:15.891Z,20.40
2019-05-03T12:06:01.137Z,20.40
2019-05-03T12:09:19.329Z,20.30
2019-05-03T12:18:08.672Z,20.30
2019-05-03T12:24:22.517Z,20.20
2019-05-03T12:27:15.199Z,20.20
2019-05-03T12:30:04.891Z,20.20
2019-05-03T12:39:23.206Z,20.20
2019-05-03T12:51:26.728Z,20.10
2019-05-03T12:54:08.367Z,20.10
2019-05-03T12:56:48.389Z,20.10
2019-05-03T13:09:39.137Z,20.10
2019-05-03T13:12:30.043Z,20.10
2019-05-03T13:15:14.474Z,20.10
2019-05-03T13:17:57.233Z,20.20
2019-05-03T13:21:12.460Z,20.10
2019-05-03T13:23:45.302Z,20.20
2019-05-03T13:37:16.203Z,20.00
2019-05-03T13:42:57.680Z,20.00
2019-05-03T13:51:09.263Z,20.10
2019-05-03T13:52:35.937Z,20.10
2019-05-03T13:55:16.701Z,19.90
2019-05-03T13:57:54.873Z,19.80
2019-05-03T14:04:02.514Z,19.90
2019-05-03T14:06:34.515Z,20.00
2019-05-03T14:09:34.754Z,19.90
2019-05-03T14:15:21.998Z,19.90
2019-05-03T14:18:54.864Z,19.90
2019-05-03T14:21:12.656Z,19.90
2019-05-03T14:30:46.097Z,19.90
2019-05-03T14:33:29.309Z,19.90
2019-05-03T14:45:59.698Z,20.00
2019-05-03T14:49:06.496Z,19.90
2019-05-03T14:51:56.957Z,19.90
2019-05-03T14:58:17.290Z,19.90
2019-05-03T15:04:17.552Z,19.90
2019-05-03T15:10:35.469Z,19.90
2019-05-03T15:13:49.829Z,19.80
2019-05-03T15:16:34.277Z,19.80
2019-05-03T15:19:28.515Z,19.80
2019-05-03T15:22:28.498Z,19.90
2019-05-03T15:25:16.658Z,19.80
2019-05-03T15:28:14.477Z,19.90
2019-05-03T15:34:44.603Z,19.90
2019-05-03T15:40:50.953Z,19.80
2019-05-03T15:56:05.234Z,19.80
2019-05-03T15:58:58.900Z,19.80
2019-05-03T16:01:49.962Z,19.70
2019-05-03T16:04:45.827Z,19.70
2019-05-03T16:07:25.042Z,19.80
2019-05-03T16:13:26.880Z,19.80
2019-05-03T16:22:38.469Z,19.70
2019-05-03T16:25:24.909Z,19.70
2019-05-03T16:31:26.628Z,19.80
2019-05-03T16:34:20.755Z,19.70
2019-05-03T16:37:04.438Z,19.70
2019-05-03T16:39:38.635Z,19.70
2019-05-03T16:42:16.777Z,19.70
2019-05-03T16:51:06.657Z,19.70
2019-05-03T16:57:01.351Z,19.70
2019-05-03T17:08:56.861Z,19.70
2019-05-03T17:11:34.824Z,19.70
2019-05-03T17:14:22.330Z,19.80
2019-05-03T17:17:34.474Z,19.80
2019-05-03T17:19:51.692Z,19.80
2019-05-03T17:22:31.089Z,19.70
2019-05-03T17:25:06.528Z,19.70
2019-05-03T17:27:44.912Z,19.70
2019-05-03T17:30:34.071Z,19.70
2019-05-03T17:33:11.299Z,19.70
2019-05-03T17:35:58.446Z,19.80
2019-05-03T17:38:28.213Z,19.70
2019-05-03T17:44:14.423Z,19.80
2019-05-03T17:47:11.753Z,19.70
2019-05-03T17:49:37.425Z,19.60
2019-05-03T17:55:27.675Z,19.60
2019-05-03T17:58:34.952Z,19.60
2019-05-03T18:01:13.695Z,19.60
2019-05-03T18:07:16.601Z,19.60
2019-05-03T18:09:55.361Z,19.70
2019-05-03T18:12:39.074Z,19.70
2019-05-03T18:15:25.119Z,19.70
2019-05-03T18:18:00.365Z,19.60
2019-05-03T18:20:36.356Z,19.60
2019-05-03T18:23:19.979Z,19.60
2019-05-03T18:26:38.392Z,19.60
2019-05-03T18:31:46.577Z,19.60
2019-05-03T18:34:27.217Z,19.60
2019-05-03T18:37:04.911Z,19.60
2019-05-03T18:39:41.998Z,19.60
2019-05-03T18:42:25.607Z,19.50
2019-05-03T18:45:04.606Z,19.50
2019-05-03T18:47:38.134Z,19.50
2019-05-03T18:50:32.042Z,19.50
2019-05-03T18:53:10.561Z,19.50
2019-05-03T18:56:04.522Z,19.50
2019-05-03T19:02:07.914Z,19.50
2019-05-03T19:08:26.775Z,19.60
2019-05-03T19:11:16.591Z,19.60
2019-05-03T19:14:27.057Z,19.50
2019-05-03T19:17:59.942Z,19.50
2019-05-03T19:20:35.115Z,19.50
2019-05-03T19:23:09.473Z,19.50
2019-05-03T19:25:58.838Z,19.50
2019-05-03T19:28:40.814Z,19.40
2019-05-03T19:31:36.018Z,19.40
2019-05-03T19:34:19.548Z,19.40
2019-05-03T19:36:57.074Z,19.40
2019-05-03T19:39:34.590Z,19.50
2019-05-03T19:42:21.984Z,19.40
2019-05-03T19:44:59.525Z,19.50
2019-05-03T19:47:36.662Z,19.40
2019-05-03T19:50:11.896Z,19.40
2019-05-03T19:55:55.205Z,19.40
2019-05-03T19:58:35.498Z,19.40
2019-05-03T20:01:22.229Z,19.40
2019-05-03T20:04:02.790Z,19.40
2019-05-03T20:06:41.643Z,19.40
2019-05-03T20:09:19.120Z,19.40
2019-05-03T20:11:55.661Z,19.30
2019-05-03T20:14:36.076Z,19.40
2019-05-03T20:17:11.193Z,19.40
2019-05-03T20:19:47.305Z,19.40
2019-05-03T20:22:22.246Z,19.40
2019-05-03T20:24:56.144Z,19.40
2019-05-03T20:27:32.514Z,19.40
2019-05-03T20:30:12.502Z,19.40
2019-05-03T20:32:51.396Z,19.40
2019-05-03T20:35:25.693Z,19.40
2019-05-03T20:37:59.410Z,19.40
2019-05-03T20:40:35.071Z,19.30
2019-05-03T20:43:23.420Z,19.30
2019-05-03T20:46:25.495Z,19.40
2019-05-03T20:49:12.563Z,19.40
2019-05-03T20:51:51.263Z,19.40
2019-05-03T20:54:28.781Z,19.30
2019-05-03T20:57:05.241Z,19.30
2019-05-03T20:59:48.216Z,19.30
2019-05-03T21:02:18.697Z,19.30
2019-05-03T21:04:52.371Z,19.40
2019-05-03T21:07:55.009Z,19.40
2019-05-03T21:13:39.081Z,19.40
2019-05-03T21:16:05.720Z,19.40
2019-05-03T21:21:44.815Z,19.40
2019-05-03T21:27:39.639Z,19.40
2019-05-03T21:30:49.533Z,19.40
2019-05-03T21:33:32.539Z,19.40
2019-05-03T21:36:22.960Z,19.40
2019-05-03T21:39:05.392Z,19.40
2019-05-03T21:41:55.533Z,19.40
2019-05-03T21:44:35.355Z,19.30
2019-05-03T21:50:44.613Z,19.40
2019-05-03T21:56:11.034Z,19.30
2019-05-03T21:58:51.725Z,19.30
2019-05-03T22:01:45.620Z,19.30
2019-05-03T22:07:25.027Z,19.30
2019-05-03T22:10:06.910Z,19.30
2019-05-03T22:12:57.048Z,19.40
2019-05-03T22:15:34.998Z,19.30
2019-05-03T22:18:21.964Z,19.30
2019-05-03T22:21:05.427Z,19.30
2019-05-03T22:23:58.438Z,19.20
2019-05-03T22:26:57.132Z,19.20
2019-05-03T22:29:29.295Z,19.30
2019-05-03T22:32:06.614Z,19.40
2019-05-03T22:34:41.215Z,19.40
2019-05-03T22:37:16.637Z,19.30
2019-05-03T22:40:05.329Z,19.30
2019-05-03T22:42:42.156Z,19.30
2019-05-03T22:45:16.882Z,19.30
2019-05-03T22:47:59.439Z,19.30
2019-05-03T22:50:44.865Z,19.30
2019-05-03T22:53:20.712Z,19.30
2019-05-03T22:55:55.955Z,19.30
2019-05-03T22:58:35.343Z,19.40
2019-05-03T23:01:16.631Z,19.40
2019-05-03T23:03:58.992Z,19.50
2019-05-03T23:06:44.464Z,19.40
2019-05-03T23:09:38.353Z,19.40
2019-05-03T23:15:11.546Z,19.40
2019-05-03T23:18:04.925Z,19.40
2019-05-03T23:20:35.196Z,19.30
2019-05-03T23:23:18.509Z,19.40
2019-05-03T23:35:27.887Z,19.20
2019-05-03T23:44:41.815Z,19.30
2019-05-03T23:50:31.026Z,19.30
2019-05-03T23:53:29.941Z,19.30
2019-05-03T23:58:55.028Z,19.20
